sensor_id;sensor_type;location;lat;lon;timestamp;P1;durP1;ratioP1;P2;durP2;ratioP2
8017;SDS011;4054;52.666;4.770;2023-04-02T00:00:04;61.40;;;56.42;;
8017;SDS011;4054;52.666;4.770;2023-04-02T00:01:03;62.35;;;57.60;;
8017;SDS011;4054;52.666;4.770;2023-04-02T00:01:52;62.45;;;57.60;;
8017;SDS011;4054;52.666;4.770;2023-04-02T00:02:25;62.28;;;57.47;;
8017;SDS011;4054;52.666;4.770;2023-04-02T00:03:02;61.63;;;56.83;;
8017;SDS011;4054;52.666;4.770;2023-04-02T00:06:00;61.00;;;56.40;;
8017;SDS011;4054;52.666;4.770;2023-04-02T00:07:23;60.83;;;55.90;;
8017;SDS011;4054;52.666;4.770;2023-04-02T00:08:01;60.80;;;56.30;;
8017;SDS011;4054;52.666;4.770;2023-04-02T00:08:40;61.97;;;57.05;;
8017;SDS011;4054;52.666;4.770;2023-04-02T00:09:16;60.95;;;56.17;;
8017;SDS011;4054;52.666;4.770;2023-04-02T00:09:55;61.55;;;57.03;;
8017;SDS011;4054;52.666;4.770;2023-04-02T00:10:29;60.60;;;56.28;;
8017;SDS011;4054;52.666;4.770;2023-04-02T00:11:03;60.10;;;55.67;;
8017;SDS011;4054;52.666;4.770;2023-04-02T00:11:37;61.35;;;56.38;;
8017;SDS011;4054;52.666;4.770;2023-04-02T00:12:16;61.67;;;56.88;;
8017;SDS011;4054;52.666;4.770;2023-04-02T00:12:57;61.08;;;56.40;;
8017;SDS011;4054;52.666;4.770;2023-04-02T00:13:32;61.00;;;56.22;;
8017;SDS011;4054;52.666;4.770;2023-04-02T00:14:12;60.75;;;56.25;;
8017;SDS011;4054;52.666;4.770;2023-04-02T00:14:49;61.60;;;56.80;;
8017;SDS011;4054;52.666;4.770;2023-04-02T00:15:23;61.53;;;56.78;;
8017;SDS011;4054;52.666;4.770;2023-04-02T00:15:56;60.83;;;56.20;;
8017;SDS011;4054;52.666;4.770;2023-04-02T00:16:30;61.22;;;56.35;;
8017;SDS011;4054;52.666;4.770;2023-04-02T00:17:03;61.65;;;56.75;;
8017;SDS011;4054;52.666;4.770;2023-04-02T00:17:36;61.83;;;56.90;;
8017;SDS011;4054;52.666;4.770;2023-04-02T00:18:09;61.03;;;56.53;;
8017;SDS011;4054;52.666;4.770;2023-04-02T00:18:46;60.72;;;56.13;;
8017;SDS011;4054;52.666;4.770;2023-04-02T00:19:23;62.65;;;57.60;;
8017;SDS011;4054;52.666;4.770;2023-04-02T00:20:01;61.55;;;56.60;;
8017;SDS011;4054;52.666;4.770;2023-04-02T00:20:36;60.47;;;55.63;;
8017;SDS011;4054;52.666;4.770;2023-04-02T00:21:13;60.92;;;56.42;;
8017;SDS011;4054;52.666;4.770;2023-04-02T00:21:52;60.53;;;56.08;;
8017;SDS011;4054;52.666;4.770;2023-04-02T00:22:25;60.38;;;56.13;;
8017;SDS011;4054;52.666;4.770;2023-04-02T00:23:00;61.20;;;56.63;;
8017;SDS011;4054;52.666;4.770;2023-04-02T00:23:35;61.53;;;56.63;;
8017;SDS011;4054;52.666;4.770;2023-04-02T00:24:09;60.08;;;55.63;;
8017;SDS011;4054;52.666;4.770;2023-04-02T00:24:48;61.72;;;56.92;;
8017;SDS011;4054;52.666;4.770;2023-04-02T00:25:22;60.47;;;56.13;;
8017;SDS011;4054;52.666;4.770;2023-04-02T00:25:58;59.90;;;55.50;;
8017;SDS011;4054;52.666;4.770;2023-04-02T00:26:31;61.20;;;56.50;;
8017;SDS011;4054;52.666;4.770;2023-04-02T00:27:05;61.85;;;56.92;;
8017;SDS011;4054;52.666;4.770;2023-04-02T00:27:43;61.42;;;56.63;;
8017;SDS011;4054;52.666;4.770;2023-04-02T00:28:16;61.70;;;56.97;;
8017;SDS011;4054;52.666;4.770;2023-04-02T00:28:49;61.40;;;56.90;;
8017;SDS011;4054;52.666;4.770;2023-04-02T00:29:23;60.58;;;56.28;;
8017;SDS011;4054;52.666;4.770;2023-04-02T00:29:55;60.67;;;56.03;;
8017;SDS011;4054;52.666;4.770;2023-04-02T00:30:28;60.03;;;55.60;;
8017;SDS011;4054;52.666;4.770;2023-04-02T00:31:02;60.72;;;56.00;;
8017;SDS011;4054;52.666;4.770;2023-04-02T00:31:35;61.15;;;56.80;;
8017;SDS011;4054;52.666;4.770;2023-04-02T00:32:09;61.60;;;57.00;;
8017;SDS011;4054;52.666;4.770;2023-04-02T00:32:51;61.00;;;56.30;;
8017;SDS011;4054;52.666;4.770;2023-04-02T00:33:25;60.75;;;56.28;;
8017;SDS011;4054;52.666;4.770;2023-04-02T00:33:59;61.35;;;56.72;;
8017;SDS011;4054;52.666;4.770;2023-04-02T00:34:35;60.75;;;56.30;;
8017;SDS011;4054;52.666;4.770;2023-04-02T00:35:09;61.15;;;56.53;;
8017;SDS011;4054;52.666;4.770;2023-04-02T00:35:43;62.05;;;57.00;;
8017;SDS011;4054;52.666;4.770;2023-04-02T00:36:17;61.15;;;56.35;;
8017;SDS011;4054;52.666;4.770;2023-04-02T00:36:52;61.63;;;56.80;;
8017;SDS011;4054;52.666;4.770;2023-04-02T00:37:26;61.25;;;56.35;;
8017;SDS011;4054;52.666;4.770;2023-04-02T00:38:00;61.35;;;56.65;;
8017;SDS011;4054;52.666;4.770;2023-04-02T00:38:32;59.90;;;55.30;;
8017;SDS011;4054;52.666;4.770;2023-04-02T00:39:06;61.05;;;56.40;;
8017;SDS011;4054;52.666;4.770;2023-04-02T00:39:43;61.08;;;56.65;;
8017;SDS011;4054;52.666;4.770;2023-04-02T00:40:18;60.83;;;56.05;;
8017;SDS011;4054;52.666;4.770;2023-04-02T00:40:55;61.22;;;56.40;;
8017;SDS011;4054;52.666;4.770;2023-04-02T00:41:30;61.00;;;56.22;;
8017;SDS011;4054;52.666;4.770;2023-04-02T00:42:08;61.80;;;56.95;;
8017;SDS011;4054;52.666;4.770;2023-04-02T00:42:43;60.70;;;56.20;;
8017;SDS011;4054;52.666;4.770;2023-04-02T00:43:16;60.50;;;56.10;;
8017;SDS011;4054;52.666;4.770;2023-04-02T00:43:51;61.25;;;56.30;;
8017;SDS011;4054;52.666;4.770;2023-04-02T00:44:24;61.60;;;57.00;;
8017;SDS011;4054;52.666;4.770;2023-04-02T00:45:00;60.85;;;56.25;;
8017;SDS011;4054;52.666;4.770;2023-04-02T00:45:35;60.50;;;56.00;;
8017;SDS011;4054;52.666;4.770;2023-04-02T00:46:09;61.42;;;56.42;;
8017;SDS011;4054;52.666;4.770;2023-04-02T00:46:46;60.00;;;55.58;;
8017;SDS011;4054;52.666;4.770;2023-04-02T00:47:21;60.47;;;55.83;;
8017;SDS011;4054;52.666;4.770;2023-04-02T00:47:55;61.10;;;56.22;;
8017;SDS011;4054;52.666;4.770;2023-04-02T00:48:44;61.20;;;56.25;;
8017;SDS011;4054;52.666;4.770;2023-04-02T00:49:23;61.05;;;56.08;;
8017;SDS011;4054;52.666;4.770;2023-04-02T00:50:03;61.00;;;56.35;;
8017;SDS011;4054;52.666;4.770;2023-04-02T00:50:39;60.33;;;55.95;;
8017;SDS011;4054;52.666;4.770;2023-04-02T00:51:15;61.35;;;56.58;;
8017;SDS011;4054;52.666;4.770;2023-04-02T00:51:52;60.55;;;56.00;;
8017;SDS011;4054;52.666;4.770;2023-04-02T00:52:28;61.53;;;56.72;;
8017;SDS011;4054;52.666;4.770;2023-04-02T00:53:03;61.28;;;56.45;;
8017;SDS011;4054;52.666;4.770;2023-04-02T00:53:40;61.20;;;56.67;;
8017;SDS011;4054;52.666;4.770;2023-04-02T00:54:17;61.75;;;56.80;;
8017;SDS011;4054;52.666;4.770;2023-04-02T00:54:54;62.58;;;57.58;;
8017;SDS011;4054;52.666;4.770;2023-04-02T00:55:31;61.30;;;56.50;;
8017;SDS011;4054;52.666;4.770;2023-04-02T00:56:11;61.13;;;56.28;;
8017;SDS011;4054;52.666;4.770;2023-04-02T00:56:47;61.20;;;56.50;;
8017;SDS011;4054;52.666;4.770;2023-04-02T00:57:23;62.53;;;57.20;;
8017;SDS011;4054;52.666;4.770;2023-04-02T00:57:58;61.20;;;56.50;;
8017;SDS011;4054;52.666;4.770;2023-04-02T00:58:33;62.22;;;57.22;;
8017;SDS011;4054;52.666;4.770;2023-04-02T00:59:12;61.83;;;57.15;;
8017;SDS011;4054;52.666;4.770;2023-04-02T00:59:56;61.55;;;56.67;;
8017;SDS011;4054;52.666;4.770;2023-04-02T01:00:30;62.90;;;57.33;;
8017;SDS011;4054;52.666;4.770;2023-04-02T01:01:13;62.30;;;57.00;;
8017;SDS011;4054;52.666;4.770;2023-04-02T01:01:50;61.65;;;56.90;;
8017;SDS011;4054;52.666;4.770;2023-04-02T01:02:28;62.42;;;57.53;;
8017;SDS011;4054;52.666;4.770;2023-04-02T01:04:23;62.60;;;57.70;;
8017;SDS011;4054;52.666;4.770;2023-04-02T01:04:59;61.70;;;56.80;;
8017;SDS011;4054;52.666;4.770;2023-04-02T01:05:33;61.80;;;56.58;;
8017;SDS011;4054;52.666;4.770;2023-04-02T01:06:07;62.58;;;57.63;;
8017;SDS011;4054;52.666;4.770;2023-04-02T01:06:41;61.67;;;56.70;;
8017;SDS011;4054;52.666;4.770;2023-04-02T01:07:15;61.33;;;56.58;;
8017;SDS011;4054;52.666;4.770;2023-04-02T01:07:52;61.65;;;57.08;;
8017;SDS011;4054;52.666;4.770;2023-04-02T01:08:39;60.33;;;55.88;;
8017;SDS011;4054;52.666;4.770;2023-04-02T01:09:23;62.35;;;57.53;;
8017;SDS011;4054;52.666;4.770;2023-04-02T01:10:09;60.42;;;55.90;;
8017;SDS011;4054;52.666;4.770;2023-04-02T01:10:56;61.70;;;56.65;;
8017;SDS011;4054;52.666;4.770;2023-04-02T01:11:41;62.42;;;57.53;;
8017;SDS011;4054;52.666;4.770;2023-04-02T01:12:43;62.17;;;56.88;;
8017;SDS011;4054;52.666;4.770;2023-04-02T01:13:26;62.15;;;56.95;;
8017;SDS011;4054;52.666;4.770;2023-04-02T01:14:02;61.67;;;57.05;;
8017;SDS011;4054;52.666;4.770;2023-04-02T01:14:43;61.10;;;56.58;;
8017;SDS011;4054;52.666;4.770;2023-04-02T01:15:23;60.67;;;55.92;;
8017;SDS011;4054;52.666;4.770;2023-04-02T01:16:03;61.60;;;56.70;;
8017;SDS011;4054;52.666;4.770;2023-04-02T01:16:43;61.67;;;57.03;;
8017;SDS011;4054;52.666;4.770;2023-04-02T01:17:31;62.13;;;57.53;;
8017;SDS011;4054;52.666;4.770;2023-04-02T01:19:28;62.83;;;57.50;;
8017;SDS011;4054;52.666;4.770;2023-04-02T01:20:23;62.67;;;57.85;;
8017;SDS011;4054;52.666;4.770;2023-04-02T01:21:15;62.08;;;57.28;;
8017;SDS011;4054;52.666;4.770;2023-04-02T01:21:55;61.05;;;56.25;;
8017;SDS011;4054;52.666;4.770;2023-04-02T01:22:33;62.03;;;57.10;;
8017;SDS011;4054;52.666;4.770;2023-04-02T01:23:19;60.75;;;55.95;;
8017;SDS011;4054;52.666;4.770;2023-04-02T01:23:58;60.35;;;55.95;;
8017;SDS011;4054;52.666;4.770;2023-04-02T01:24:32;62.42;;;57.13;;
8017;SDS011;4054;52.666;4.770;2023-04-02T01:25:07;60.53;;;55.88;;
8017;SDS011;4054;52.666;4.770;2023-04-02T01:25:46;61.30;;;56.30;;
8017;SDS011;4054;52.666;4.770;2023-04-02T01:26:35;60.90;;;56.17;;
8017;SDS011;4054;52.666;4.770;2023-04-02T01:27:15;61.53;;;56.83;;
8017;SDS011;4054;52.666;4.770;2023-04-02T01:27:52;61.17;;;56.22;;
8017;SDS011;4054;52.666;4.770;2023-04-02T01:28:33;61.25;;;56.05;;
8017;SDS011;4054;52.666;4.770;2023-04-02T01:29:23;61.17;;;56.63;;
8017;SDS011;4054;52.666;4.770;2023-04-02T01:29:59;61.13;;;56.58;;
8017;SDS011;4054;52.666;4.770;2023-04-02T01:30:33;60.00;;;55.80;;
8017;SDS011;4054;52.666;4.770;2023-04-02T01:31:07;62.22;;;56.72;;
8017;SDS011;4054;52.666;4.770;2023-04-02T01:31:43;61.00;;;56.30;;
8017;SDS011;4054;52.666;4.770;2023-04-02T01:32:17;60.90;;;56.15;;
8017;SDS011;4054;52.666;4.770;2023-04-02T01:32:52;60.80;;;56.30;;
8017;SDS011;4054;52.666;4.770;2023-04-02T01:33:27;61.25;;;56.40;;
8017;SDS011;4054;52.666;4.770;2023-04-02T01:34:01;60.90;;;56.40;;
8017;SDS011;4054;52.666;4.770;2023-04-02T01:34:34;60.22;;;55.90;;
8017;SDS011;4054;52.666;4.770;2023-04-02T01:35:08;61.88;;;57.00;;
8017;SDS011;4054;52.666;4.770;2023-04-02T01:35:41;59.50;;;55.30;;
8017;SDS011;4054;52.666;4.770;2023-04-02T01:36:19;60.00;;;55.50;;
8017;SDS011;4054;52.666;4.770;2023-04-02T01:37:07;61.63;;;56.97;;
8017;SDS011;4054;52.666;4.770;2023-04-02T01:37:49;60.22;;;55.90;;
8017;SDS011;4054;52.666;4.770;2023-04-02T01:38:28;60.55;;;55.50;;
8017;SDS011;4054;52.666;4.770;2023-04-02T01:39:09;60.95;;;56.28;;
8017;SDS011;4054;52.666;4.770;2023-04-02T01:39:55;61.20;;;56.47;;
8017;SDS011;4054;52.666;4.770;2023-04-02T01:40:36;60.03;;;55.58;;
8017;SDS011;4054;52.666;4.770;2023-04-02T01:41:12;59.95;;;55.70;;
8017;SDS011;4054;52.666;4.770;2023-04-02T01:41:51;61.05;;;56.25;;
8017;SDS011;4054;52.666;4.770;2023-04-02T01:42:30;61.13;;;56.40;;
8017;SDS011;4054;52.666;4.770;2023-04-02T01:43:09;61.10;;;56.50;;
8017;SDS011;4054;52.666;4.770;2023-04-02T01:43:50;59.95;;;55.47;;
8017;SDS011;4054;52.666;4.770;2023-04-02T01:44:28;61.25;;;56.35;;
8017;SDS011;4054;52.666;4.770;2023-04-02T01:45:03;60.92;;;56.25;;
8017;SDS011;4054;52.666;4.770;2023-04-02T01:45:38;60.50;;;55.80;;
8017;SDS011;4054;52.666;4.770;2023-04-02T01:46:24;60.38;;;55.65;;
8017;SDS011;4054;52.666;4.770;2023-04-02T01:46:58;61.13;;;56.25;;
8017;SDS011;4054;52.666;4.770;2023-04-02T01:47:37;61.28;;;56.65;;
8017;SDS011;4054;52.666;4.770;2023-04-02T01:48:12;60.15;;;55.40;;
8017;SDS011;4054;52.666;4.770;2023-04-02T01:48:47;59.83;;;55.33;;
8017;SDS011;4054;52.666;4.770;2023-04-02T01:49:20;60.30;;;55.92;;
8017;SDS011;4054;52.666;4.770;2023-04-02T01:49:54;60.03;;;55.38;;
8017;SDS011;4054;52.666;4.770;2023-04-02T01:50:30;60.33;;;55.83;;
8017;SDS011;4054;52.666;4.770;2023-04-02T01:51:22;61.05;;;56.45;;
8017;SDS011;4054;52.666;4.770;2023-04-02T01:51:57;60.92;;;56.35;;
8017;SDS011;4054;52.666;4.770;2023-04-02T01:52:36;60.60;;;55.80;;
8017;SDS011;4054;52.666;4.770;2023-04-02T01:53:12;60.08;;;55.55;;
8017;SDS011;4054;52.666;4.770;2023-04-02T01:53:45;60.25;;;55.42;;
8017;SDS011;4054;52.666;4.770;2023-04-02T01:54:19;59.58;;;55.38;;
8017;SDS011;4054;52.666;4.770;2023-04-02T01:54:52;61.25;;;56.20;;
8017;SDS011;4054;52.666;4.770;2023-04-02T01:55:29;59.97;;;55.38;;
8017;SDS011;4054;52.666;4.770;2023-04-02T01:56:05;59.72;;;55.42;;
8017;SDS011;4054;52.666;4.770;2023-04-02T01:56:37;60.95;;;56.25;;
8017;SDS011;4054;52.666;4.770;2023-04-02T01:57:11;59.38;;;54.95;;
8017;SDS011;4054;52.666;4.770;2023-04-02T01:57:46;59.38;;;55.03;;
8017;SDS011;4054;52.666;4.770;2023-04-02T01:58:22;59.42;;;55.20;;
8017;SDS011;4054;52.666;4.770;2023-04-02T01:58:58;59.83;;;55.28;;
8017;SDS011;4054;52.666;4.770;2023-04-02T01:59:34;60.13;;;55.45;;
8017;SDS011;4054;52.666;4.770;2023-04-02T02:00:10;59.42;;;55.03;;
8017;SDS011;4054;52.666;4.770;2023-04-02T02:00:48;59.78;;;55.40;;
8017;SDS011;4054;52.666;4.770;2023-04-02T02:01:23;59.78;;;55.10;;
8017;SDS011;4054;52.666;4.770;2023-04-02T02:01:59;60.33;;;55.63;;
8017;SDS011;4054;52.666;4.770;2023-04-02T02:02:34;59.60;;;55.10;;
8017;SDS011;4054;52.666;4.770;2023-04-02T02:03:08;60.28;;;55.90;;
8017;SDS011;4054;52.666;4.770;2023-04-02T02:03:42;59.00;;;54.90;;
8017;SDS011;4054;52.666;4.770;2023-04-02T02:04:16;60.22;;;55.88;;
8017;SDS011;4054;52.666;4.770;2023-04-02T02:04:49;59.35;;;55.17;;
8017;SDS011;4054;52.666;4.770;2023-04-02T02:05:22;60.13;;;55.45;;
8017;SDS011;4054;52.666;4.770;2023-04-02T02:05:55;60.30;;;55.58;;
8017;SDS011;4054;52.666;4.770;2023-04-02T02:06:29;59.63;;;55.00;;
8017;SDS011;4054;52.666;4.770;2023-04-02T02:07:01;60.20;;;55.47;;
8017;SDS011;4054;52.666;4.770;2023-04-02T02:07:35;60.35;;;55.95;;
8017;SDS011;4054;52.666;4.770;2023-04-02T02:08:22;60.20;;;55.83;;
8017;SDS011;4054;52.666;4.770;2023-04-02T02:09:00;59.80;;;55.22;;
8017;SDS011;4054;52.666;4.770;2023-04-02T02:09:35;59.35;;;55.17;;
8017;SDS011;4054;52.666;4.770;2023-04-02T02:10:09;60.25;;;55.65;;
8017;SDS011;4054;52.666;4.770;2023-04-02T02:10:44;59.95;;;55.58;;
8017;SDS011;4054;52.666;4.770;2023-04-02T02:11:18;59.90;;;55.20;;
8017;SDS011;4054;52.666;4.770;2023-04-02T02:11:53;59.58;;;55.28;;
8017;SDS011;4054;52.666;4.770;2023-04-02T02:12:27;60.42;;;56.03;;
8017;SDS011;4054;52.666;4.770;2023-04-02T02:13:00;59.17;;;55.00;;
8017;SDS011;4054;52.666;4.770;2023-04-02T02:13:32;60.42;;;55.60;;
8017;SDS011;4054;52.666;4.770;2023-04-02T02:14:08;59.33;;;54.92;;
8017;SDS011;4054;52.666;4.770;2023-04-02T02:14:45;58.50;;;54.33;;
8017;SDS011;4054;52.666;4.770;2023-04-02T02:15:18;58.83;;;54.70;;
8017;SDS011;4054;52.666;4.770;2023-04-02T02:15:52;59.63;;;55.22;;
8017;SDS011;4054;52.666;4.770;2023-04-02T02:16:29;60.37;;;55.70;;
8017;SDS011;4054;52.666;4.770;2023-04-02T02:17:02;59.45;;;54.75;;
8017;SDS011;4054;52.666;4.770;2023-04-02T02:17:43;59.75;;;55.38;;
8017;SDS011;4054;52.666;4.770;2023-04-02T02:18:18;59.50;;;55.15;;
8017;SDS011;4054;52.666;4.770;2023-04-02T02:18:53;59.58;;;55.08;;
8017;SDS011;4054;52.666;4.770;2023-04-02T02:19:30;59.58;;;54.90;;
8017;SDS011;4054;52.666;4.770;2023-04-02T02:20:06;59.20;;;55.00;;
8017;SDS011;4054;52.666;4.770;2023-04-02T02:20:42;58.90;;;54.70;;
8017;SDS011;4054;52.666;4.770;2023-04-02T02:21:17;59.08;;;54.97;;
8017;SDS011;4054;52.666;4.770;2023-04-02T02:22:03;59.42;;;55.28;;
8017;SDS011;4054;52.666;4.770;2023-04-02T02:22:39;59.45;;;54.80;;
8017;SDS011;4054;52.666;4.770;2023-04-02T02:23:14;59.35;;;55.00;;
8017;SDS011;4054;52.666;4.770;2023-04-02T02:23:48;58.30;;;54.30;;
8017;SDS011;4054;52.666;4.770;2023-04-02T02:24:21;60.15;;;55.42;;
8017;SDS011;4054;52.666;4.770;2023-04-02T02:24:54;59.50;;;55.20;;
8017;SDS011;4054;52.666;4.770;2023-04-02T02:25:30;59.70;;;55.30;;
8017;SDS011;4054;52.666;4.770;2023-04-02T02:26:04;60.78;;;55.88;;
8017;SDS011;4054;52.666;4.770;2023-04-02T02:26:37;59.88;;;55.60;;
8017;SDS011;4054;52.666;4.770;2023-04-02T02:28:17;61.10;;;56.35;;
8017;SDS011;4054;52.666;4.770;2023-04-02T02:28:54;60.17;;;55.78;;
8017;SDS011;4054;52.666;4.770;2023-04-02T02:29:30;60.30;;;55.80;;
8017;SDS011;4054;52.666;4.770;2023-04-02T02:30:05;58.75;;;54.45;;
8017;SDS011;4054;52.666;4.770;2023-04-02T02:30:43;60.60;;;55.72;;
8017;SDS011;4054;52.666;4.770;2023-04-02T02:31:18;60.15;;;55.60;;
8017;SDS011;4054;52.666;4.770;2023-04-02T02:31:59;60.60;;;55.72;;
8017;SDS011;4054;52.666;4.770;2023-04-02T02:32:33;60.00;;;55.50;;
8017;SDS011;4054;52.666;4.770;2023-04-02T02:33:11;60.00;;;55.45;;
8017;SDS011;4054;52.666;4.770;2023-04-02T02:33:49;60.40;;;55.90;;
8017;SDS011;4054;52.666;4.770;2023-04-02T02:34:28;59.80;;;55.60;;
8017;SDS011;4054;52.666;4.770;2023-04-02T02:35:06;58.72;;;54.72;;
8017;SDS011;4054;52.666;4.770;2023-04-02T02:35:48;60.80;;;56.15;;
8017;SDS011;4054;52.666;4.770;2023-04-02T02:36:25;58.85;;;54.65;;
8017;SDS011;4054;52.666;4.770;2023-04-02T02:37:05;59.50;;;55.17;;
8017;SDS011;4054;52.666;4.770;2023-04-02T02:37:44;60.78;;;56.00;;
8017;SDS011;4054;52.666;4.770;2023-04-02T02:39:19;59.92;;;55.50;;
8017;SDS011;4054;52.666;4.770;2023-04-02T02:39:56;59.35;;;55.05;;
8017;SDS011;4054;52.666;4.770;2023-04-02T02:40:31;58.78;;;54.63;;
8017;SDS011;4054;52.666;4.770;2023-04-02T02:41:08;61.22;;;56.63;;
8017;SDS011;4054;52.666;4.770;2023-04-02T02:41:48;60.65;;;54.95;;
8017;SDS011;4054;52.666;4.770;2023-04-02T02:42:25;59.47;;;54.97;;
8017;SDS011;4054;52.666;4.770;2023-04-02T02:43:02;59.42;;;55.05;;
8017;SDS011;4054;52.666;4.770;2023-04-02T02:43:40;60.10;;;55.40;;
8017;SDS011;4054;52.666;4.770;2023-04-02T02:44:17;58.53;;;54.40;;
8017;SDS011;4054;52.666;4.770;2023-04-02T02:44:57;60.83;;;56.15;;
8017;SDS011;4054;52.666;4.770;2023-04-02T02:45:32;60.65;;;56.10;;
8017;SDS011;4054;52.666;4.770;2023-04-02T02:46:08;59.92;;;55.42;;
8017;SDS011;4054;52.666;4.770;2023-04-02T02:46:48;59.60;;;54.88;;
8017;SDS011;4054;52.666;4.770;2023-04-02T02:47:23;60.33;;;55.83;;
8017;SDS011;4054;52.666;4.770;2023-04-02T02:48:00;59.75;;;55.10;;
8017;SDS011;4054;52.666;4.770;2023-04-02T02:48:35;59.05;;;54.95;;
8017;SDS011;4054;52.666;4.770;2023-04-02T02:49:09;59.78;;;55.20;;
8017;SDS011;4054;52.666;4.770;2023-04-02T02:49:46;59.30;;;54.97;;
8017;SDS011;4054;52.666;4.770;2023-04-02T02:50:24;59.83;;;55.50;;
8017;SDS011;4054;52.666;4.770;2023-04-02T02:50:58;61.08;;;56.30;;
8017;SDS011;4054;52.666;4.770;2023-04-02T02:51:37;59.15;;;54.67;;
8017;SDS011;4054;52.666;4.770;2023-04-02T02:52:18;59.58;;;55.22;;
8017;SDS011;4054;52.666;4.770;2023-04-02T02:52:58;59.63;;;55.03;;
8017;SDS011;4054;52.666;4.770;2023-04-02T02:53:42;59.75;;;55.13;;
8017;SDS011;4054;52.666;4.770;2023-04-02T02:54:19;59.63;;;55.28;;
8017;SDS011;4054;52.666;4.770;2023-04-02T02:54:53;58.65;;;53.95;;
8017;SDS011;4054;52.666;4.770;2023-04-02T02:55:30;60.33;;;55.50;;
8017;SDS011;4054;52.666;4.770;2023-04-02T02:56:16;58.83;;;54.50;;
8017;SDS011;4054;52.666;4.770;2023-04-02T02:56:52;59.53;;;55.15;;
8017;SDS011;4054;52.666;4.770;2023-04-02T02:57:28;61.00;;;56.08;;
8017;SDS011;4054;52.666;4.770;2023-04-02T02:58:04;60.42;;;55.72;;
8017;SDS011;4054;52.666;4.770;2023-04-02T02:58:55;61.30;;;56.25;;
8017;SDS011;4054;52.666;4.770;2023-04-02T02:59:33;59.30;;;54.90;;
8017;SDS011;4054;52.666;4.770;2023-04-02T03:00:08;59.63;;;54.70;;
8017;SDS011;4054;52.666;4.770;2023-04-02T03:00:43;60.03;;;55.47;;
8017;SDS011;4054;52.666;4.770;2023-04-02T03:01:17;60.97;;;55.95;;
8017;SDS011;4054;52.666;4.770;2023-04-02T03:01:50;60.13;;;55.42;;
8017;SDS011;4054;52.666;4.770;2023-04-02T03:02:23;61.03;;;56.35;;
8017;SDS011;4054;52.666;4.770;2023-04-02T03:02:57;59.83;;;55.33;;
8017;SDS011;4054;52.666;4.770;2023-04-02T03:03:34;60.50;;;55.63;;
8017;SDS011;4054;52.666;4.770;2023-04-02T03:04:08;59.15;;;54.95;;
8017;SDS011;4054;52.666;4.770;2023-04-02T03:04:44;60.28;;;55.55;;
8017;SDS011;4054;52.666;4.770;2023-04-02T03:05:19;59.53;;;55.13;;
8017;SDS011;4054;52.666;4.770;2023-04-02T03:05:57;60.10;;;55.05;;
8017;SDS011;4054;52.666;4.770;2023-04-02T03:06:34;60.20;;;55.50;;
8017;SDS011;4054;52.666;4.770;2023-04-02T03:07:07;59.10;;;54.60;;
8017;SDS011;4054;52.666;4.770;2023-04-02T03:07:39;59.13;;;54.80;;
8017;SDS011;4054;52.666;4.770;2023-04-02T03:08:12;58.63;;;54.45;;
8017;SDS011;4054;52.666;4.770;2023-04-02T03:08:51;58.95;;;54.75;;
8017;SDS011;4054;52.666;4.770;2023-04-02T03:09:35;59.92;;;55.35;;
8017;SDS011;4054;52.666;4.770;2023-04-02T03:10:14;60.03;;;55.42;;
8017;SDS011;4054;52.666;4.770;2023-04-02T03:10:51;59.88;;;55.20;;
8017;SDS011;4054;52.666;4.770;2023-04-02T03:11:27;61.40;;;56.33;;
8017;SDS011;4054;52.666;4.770;2023-04-02T03:12:15;60.08;;;55.70;;
8017;SDS011;4054;52.666;4.770;2023-04-02T03:12:58;59.03;;;54.60;;
8017;SDS011;4054;52.666;4.770;2023-04-02T03:13:37;59.80;;;55.50;;
8017;SDS011;4054;52.666;4.770;2023-04-02T03:14:14;58.75;;;54.38;;
8017;SDS011;4054;52.666;4.770;2023-04-02T03:14:52;59.25;;;54.95;;
8017;SDS011;4054;52.666;4.770;2023-04-02T03:15:31;58.78;;;54.58;;
8017;SDS011;4054;52.666;4.770;2023-04-02T03:16:08;60.38;;;55.67;;
8017;SDS011;4054;52.666;4.770;2023-04-02T03:16:44;60.22;;;55.33;;
8017;SDS011;4054;52.666;4.770;2023-04-02T03:17:21;60.63;;;55.38;;
8017;SDS011;4054;52.666;4.770;2023-04-02T03:17:59;58.85;;;54.63;;
8017;SDS011;4054;52.666;4.770;2023-04-02T03:18:40;59.50;;;55.20;;
8017;SDS011;4054;52.666;4.770;2023-04-02T03:19:19;60.10;;;55.50;;
8017;SDS011;4054;52.666;4.770;2023-04-02T03:20:00;60.22;;;55.53;;
8017;SDS011;4054;52.666;4.770;2023-04-02T03:20:39;59.92;;;55.42;;
8017;SDS011;4054;52.666;4.770;2023-04-02T03:21:18;58.67;;;54.30;;
8017;SDS011;4054;52.666;4.770;2023-04-02T03:21:57;58.53;;;54.30;;
8017;SDS011;4054;52.666;4.770;2023-04-02T03:22:42;58.95;;;54.53;;
8017;SDS011;4054;52.666;4.770;2023-04-02T03:23:21;58.55;;;54.35;;
8017;SDS011;4054;52.666;4.770;2023-04-02T03:23:58;59.10;;;54.75;;
8017;SDS011;4054;52.666;4.770;2023-04-02T03:24:35;58.65;;;54.42;;
8017;SDS011;4054;52.666;4.770;2023-04-02T03:25:20;58.17;;;54.17;;
8017;SDS011;4054;52.666;4.770;2023-04-02T03:26:02;58.25;;;54.03;;
8017;SDS011;4054;52.666;4.770;2023-04-02T03:26:39;57.60;;;53.33;;
8017;SDS011;4054;52.666;4.770;2023-04-02T03:27:15;58.88;;;54.50;;
8017;SDS011;4054;52.666;4.770;2023-04-02T03:27:52;58.88;;;54.30;;
8017;SDS011;4054;52.666;4.770;2023-04-02T03:28:29;59.42;;;54.80;;
8017;SDS011;4054;52.666;4.770;2023-04-02T03:29:05;58.63;;;53.95;;
8017;SDS011;4054;52.666;4.770;2023-04-02T03:29:44;59.97;;;55.13;;
8017;SDS011;4054;52.666;4.770;2023-04-02T03:30:25;60.63;;;55.65;;
8017;SDS011;4054;52.666;4.770;2023-04-02T03:31:04;59.75;;;55.15;;
8017;SDS011;4054;52.666;4.770;2023-04-02T03:31:40;59.25;;;54.45;;
8017;SDS011;4054;52.666;4.770;2023-04-02T03:32:15;59.42;;;54.92;;
8017;SDS011;4054;52.666;4.770;2023-04-02T03:32:52;59.90;;;55.28;;
8017;SDS011;4054;52.666;4.770;2023-04-02T03:33:30;59.72;;;54.75;;
8017;SDS011;4054;52.666;4.770;2023-04-02T03:34:10;58.03;;;53.92;;
8017;SDS011;4054;52.666;4.770;2023-04-02T03:34:48;59.17;;;54.92;;
8017;SDS011;4054;52.666;4.770;2023-04-02T03:35:26;60.05;;;55.15;;
8017;SDS011;4054;52.666;4.770;2023-04-02T03:36:02;59.60;;;55.13;;
8017;SDS011;4054;52.666;4.770;2023-04-02T03:36:46;59.15;;;54.55;;
8017;SDS011;4054;52.666;4.770;2023-04-02T03:37:28;58.85;;;54.55;;
8017;SDS011;4054;52.666;4.770;2023-04-02T03:38:05;58.22;;;54.13;;
8017;SDS011;4054;52.666;4.770;2023-04-02T03:38:48;58.80;;;54.45;;
8017;SDS011;4054;52.666;4.770;2023-04-02T03:39:24;58.80;;;54.42;;
8017;SDS011;4054;52.666;4.770;2023-04-02T03:40:03;58.35;;;54.05;;
8017;SDS011;4054;52.666;4.770;2023-04-02T03:40:40;59.13;;;54.60;;
8017;SDS011;4054;52.666;4.770;2023-04-02T03:41:16;59.40;;;54.95;;
8017;SDS011;4054;52.666;4.770;2023-04-02T03:41:53;60.88;;;55.67;;
8017;SDS011;4054;52.666;4.770;2023-04-02T03:42:28;59.55;;;55.03;;
8017;SDS011;4054;52.666;4.770;2023-04-02T03:43:12;59.30;;;54.90;;
8017;SDS011;4054;52.666;4.770;2023-04-02T03:43:50;59.25;;;54.58;;
8017;SDS011;4054;52.666;4.770;2023-04-02T03:44:26;59.15;;;54.53;;
8017;SDS011;4054;52.666;4.770;2023-04-02T03:45:04;58.78;;;54.58;;
8017;SDS011;4054;52.666;4.770;2023-04-02T03:45:43;57.80;;;53.80;;
8017;SDS011;4054;52.666;4.770;2023-04-02T03:46:23;57.83;;;53.83;;
8017;SDS011;4054;52.666;4.770;2023-04-02T03:47:02;58.60;;;54.38;;
8017;SDS011;4054;52.666;4.770;2023-04-02T03:47:41;58.80;;;54.65;;
8017;SDS011;4054;52.666;4.770;2023-04-02T03:48:18;58.35;;;53.80;;
8017;SDS011;4054;52.666;4.770;2023-04-02T03:48:56;57.60;;;53.60;;
8017;SDS011;4054;52.666;4.770;2023-04-02T03:49:32;58.45;;;54.13;;
8017;SDS011;4054;52.666;4.770;2023-04-02T03:50:10;57.50;;;53.50;;
8017;SDS011;4054;52.666;4.770;2023-04-02T03:50:49;59.17;;;54.78;;
8017;SDS011;4054;52.666;4.770;2023-04-02T03:51:28;57.90;;;54.00;;
8017;SDS011;4054;52.666;4.770;2023-04-02T03:52:08;58.65;;;54.45;;
8017;SDS011;4054;52.666;4.770;2023-04-02T03:52:43;58.88;;;54.60;;